Time;durP1;ratioP1;P1;durP2;ratioP2;P2;SDS_P1;SDS_P2;PMS_P1;PMS_P2;Temp;Humidity;BMP_temperature;BMP_pressure;BME280_temperature;BME280_humidity;BME280_pressure;Samples;Min_cycle;Max_cycle;Signal;HPM_P1;HPM_P2
2022/12/03 00:02:12;;;;;;;17.25;10.43;;;2.40;99.90;;;;;;5072494;28;20274;-46
2022/12/03 00:04:37;;;;;;;16.92;9.73;;;2.30;99.90;;;;;;5072639;28;20253;-46
2022/12/03 00:07:03;;;;;;;18.35;9.60;;;2.40;99.90;;;;;;5072518;28;20205;-46
2022/12/03 00:09:32;;;;;;;17.67;11.07;;;2.40;99.90;;;;;;5072330;28;20169;-52
2022/12/03 00:11:58;;;;;;;16.60;10.52;;;2.50;99.90;;;;;;5072305;28;20252;-47
2022/12/03 00:14:23;;;;;;;18.13;10.35;;;2.50;99.90;;;;;;5072374;28;20257;-46
2022/12/03 00:16:49;;;;;;;20.38;10.10;;;2.50;99.90;;;;;;5072481;28;20220;-48
2022/12/03 00:19:14;;;;;;;17.33;10.88;;;2.60;99.90;;;;;;5072408;28;20162;-48
2022/12/03 00:21:40;;;;;;;15.80;10.90;;;2.60;99.90;;;;;;5072074;28;20209;-46
2022/12/03 00:24:06;;;;;;;15.82;10.30;;;2.60;99.90;;;;;;5072234;28;20162;-46
2022/12/03 00:26:32;;;;;;;16.75;9.88;;;2.70;99.90;;;;;;5072498;28;20178;-46
2022/12/03 00:28:57;;;;;;;17.70;10.85;;;2.70;99.90;;;;;;5072128;28;20249;-46
2022/12/03 00:31:24;;;;;;;18.02;11.05;;;2.70;99.90;;;;;;5072133;28;20166;-47
2022/12/03 00:33:50;;;;;;;18.40;10.50;;;2.60;99.90;;;;;;5072050;28;20158;-49
2022/12/03 00:36:16;;;;;;;16.42;10.05;;;2.60;99.90;;;;;;5072619;28;20166;-48
2022/12/03 00:38:42;;;;;;;16.17;10.23;;;2.60;99.90;;;;;;5072022;28;20560;-47
2022/12/03 00:41:08;;;;;;;16.67;10.48;;;2.50;99.90;;;;;;5071815;28;20200;-48
2022/12/03 00:43:33;;;;;;;15.98;9.65;;;2.50;99.90;;;;;;5071936;28;20202;-46
2022/12/03 00:45:59;;;;;;;19.52;11.10;;;2.60;99.90;;;;;;5071915;28;20170;-47
2022/12/03 00:48:24;;;;;;;16.08;9.48;;;2.50;99.90;;;;;;5071888;28;20180;-49
2022/12/03 00:50:50;;;;;;;16.60;10.10;;;2.60;99.90;;;;;;5071939;28;20162;-48
2022/12/03 00:53:18;;;;;;;16.75;10.35;;;2.60;99.90;;;;;;5071566;28;20207;-46
2022/12/03 00:55:44;;;;;;;18.30;10.27;;;2.60;99.90;;;;;;5072154;28;20231;-46
2022/12/03 00:58:09;;;;;;;15.30;9.77;;;2.60;99.90;;;;;;5072004;28;20626;-49
2022/12/03 01:00:36;;;;;;;18.80;9.80;;;2.60;99.90;;;;;;5071496;28;20214;-48
2022/12/03 01:03:02;;;;;;;14.02;8.68;;;2.50;99.90;;;;;;5071523;28;20415;-48
2022/12/03 01:05:28;;;;;;;16.88;10.30;;;2.60;99.90;;;;;;5071353;28;20622;-46
2022/12/03 01:07:53;;;;;;;15.20;9.82;;;2.50;99.90;;;;;;5072013;28;20176;-47
2022/12/03 01:10:19;;;;;;;16.83;10.13;;;2.60;99.90;;;;;;5071681;28;20169;-47
2022/12/03 01:12:44;;;;;;;13.50;8.77;;;2.70;99.90;;;;;;5071986;28;20177;-49
2022/12/03 01:15:10;;;;;;;15.38;9.93;;;2.60;99.90;;;;;;5071615;28;20248;-46
2022/12/03 01:17:36;;;;;;;15.57;9.70;;;2.70;99.90;;;;;;5071546;28;20177;-45
2022/12/03 01:20:04;;;;;;;15.25;10.02;;;2.60;99.90;;;;;;5071630;28;20705;-48
2022/12/03 01:22:29;;;;;;;15.98;9.75;;;2.60;99.90;;;;;;5071380;28;20687;-48
2022/12/03 01:24:55;;;;;;;15.55;10.35;;;2.70;99.90;;;;;;5071475;28;20162;-47
2022/12/03 01:27:21;;;;;;;15.27;9.85;;;4.00;99.90;;;;;;5071458;28;20190;-49
2022/12/03 01:29:47;;;;;;;13.68;8.73;;;2.70;99.90;;;;;;5071983;28;20162;-46
2022/12/03 01:32:15;;;;;;;16.90;9.80;;;2.70;99.90;;;;;;5071465;28;20687;-48
2022/12/03 01:34:46;;;;;;;14.60;9.68;;;2.70;99.90;;;;;;5071360;28;20507;-46
2022/12/03 01:37:12;;;;;;;14.98;9.15;;;2.70;99.90;;;;;;5071361;28;20572;-47
2022/12/03 01:39:38;;;;;;;17.77;10.02;;;2.80;99.90;;;;;;5071386;28;20227;-46
2022/12/03 01:42:04;;;;;;;16.85;10.90;;;2.80;99.90;;;;;;5071249;28;20206;-46
2022/12/03 01:44:32;;;;;;;15.68;9.27;;;2.90;99.90;;;;;;5071336;28;20167;-47
2022/12/03 01:47:01;;;;;;;15.27;9.75;;;2.90;99.90;;;;;;5071388;28;20178;-46
2022/12/03 01:49:41;;;;;;;13.60;8.93;;;2.90;99.90;;;;;;5071549;28;20162;-46
2022/12/03 01:52:15;;;;;;;15.32;9.43;;;2.90;99.90;;;;;;5071469;28;20354;-46
2022/12/03 01:54:46;;;;;;;16.13;9.35;;;2.90;99.90;;;;;;5071221;28;20162;-46
2022/12/03 01:57:31;;;;;;;15.50;9.30;;;2.90;99.90;;;;;;5071423;28;20531;-45
2022/12/03 01:59:59;;;;;;;16.60;10.30;;;2.90;99.90;;;;;;5070693;28;20190;-46
2022/12/03 02:02:28;;;;;;;18.58;11.43;;;2.90;99.90;;;;;;5071082;28;20296;-46
2022/12/03 02:04:54;;;;;;;16.80;9.77;;;2.90;99.90;;;;;;5073410;28;20296;-46
2022/12/03 02:07:27;;;;;;;13.32;9.15;;;2.90;99.90;;;;;;5074815;28;20174;-46
2022/12/03 02:09:55;;;;;;;13.07;8.82;;;3.00;99.90;;;;;;5075132;28;20181;-45
2022/12/03 02:12:29;;;;;;;13.52;9.35;;;2.90;99.90;;;;;;5074800;28;20172;-46
2022/12/03 02:14:54;;;;;;;16.60;8.18;;;2.90;99.90;;;;;;5074690;28;20200;-47
2022/12/03 02:17:20;;;;;;;13.60;9.20;;;2.90;99.90;;;;;;5074810;28;20193;-46
2022/12/03 02:19:47;;;;;;;11.93;8.45;;;2.80;99.90;;;;;;5075007;28;20169;-46
2022/12/03 02:22:25;;;;;;;14.75;9.55;;;2.90;99.90;;;;;;5074470;28;20202;-46
2022/12/03 02:24:58;;;;;;;17.00;9.77;;;3.50;99.90;;;;;;5074507;28;20162;-46
2022/12/03 02:27:24;;;;;;;15.38;9.57;;;2.90;99.90;;;;;;5074518;28;20212;-47
2022/12/03 02:29:50;;;;;;;14.60;9.23;;;2.90;99.90;;;;;;5074621;28;20201;-46
2022/12/03 02:32:16;;;;;;;14.70;9.15;;;2.90;99.90;;;;;;5074768;28;20249;-46
2022/12/03 02:34:44;;;;;;;13.80;8.45;;;2.90;99.90;;;;;;5074632;28;20672;-46
2022/12/03 02:37:31;;;;;;;13.57;8.85;;;3.00;99.90;;;;;;5074301;28;20227;-46
2022/12/03 02:40:02;;;;;;;13.85;8.35;;;2.90;99.90;;;;;;5074370;28;20161;-45
2022/12/03 02:42:35;;;;;;;12.80;8.20;;;2.90;99.90;;;;;;5074079;28;20205;-46
2022/12/03 02:45:07;;;;;;;17.08;8.95;;;2.90;99.90;;;;;;5074470;28;20166;-46
2022/12/03 02:47:39;;;;;;;14.00;8.70;;;2.90;99.90;;;;;;5074379;28;20578;-46
2022/12/03 02:50:05;;;;;;;16.70;9.40;;;3.00;99.90;;;;;;5074161;28;20173;-46
2022/12/03 02:52:31;;;;;;;14.27;8.52;;;3.00;99.90;;;;;;5073964;28;20196;-46
2022/12/03 02:54:58;;;;;;;14.75;8.73;;;3.00;99.90;;;;;;5074057;28;20174;-46
2022/12/03 02:57:23;;;;;;;14.90;8.73;;;2.90;99.90;;;;;;5074057;28;20166;-45
2022/12/03 02:59:49;;;;;;;17.13;9.20;;;3.00;99.90;;;;;;5073895;28;20524;-46
2022/12/03 03:02:15;;;;;;;13.25;8.52;;;2.90;99.90;;;;;;5074053;28;20689;-46
2022/12/03 03:04:41;;;;;;;12.75;7.72;;;3.00;99.90;;;;;;5074297;28;20205;-47
2022/12/03 03:07:08;;;;;;;13.07;9.70;;;2.90;99.90;;;;;;5074097;28;20209;-46
2022/12/03 03:09:34;;;;;;;15.55;8.88;;;3.00;99.90;;;;;;5073821;28;20162;-46
2022/12/03 03:11:59;;;;;;;14.82;8.77;;;3.00;99.90;;;;;;5073886;28;20523;-46
2022/12/03 03:14:25;;;;;;;13.25;9.18;;;3.00;99.90;;;;;;5055920;28;20166;-46
2022/12/03 03:16:54;;;;;;;15.50;9.98;;;3.00;99.90;;;;;;5073106;28;20158;-46
2022/12/03 03:19:24;;;;;;;13.27;8.45;;;3.00;99.90;;;;;;5073802;28;20184;-46
2022/12/03 03:21:51;;;;;;;13.95;8.60;;;2.90;99.90;;;;;;5073438;28;20197;-46
2022/12/03 03:24:17;;;;;;;12.15;8.63;;;2.90;99.90;;;;;;5073738;28;20535;-46
2022/12/03 03:26:43;;;;;;;14.93;8.00;;;3.00;99.90;;;;;;5073601;28;20178;-46
2022/12/03 03:29:08;;;;;;;17.48;9.57;;;3.00;99.90;;;;;;5073474;28;20204;-46
2022/12/03 03:31:34;;;;;;;14.00;8.68;;;3.00;99.90;;;;;;5073260;28;20178;-46
2022/12/03 03:34:00;;;;;;;14.30;9.18;;;3.00;99.90;;;;;;5073320;28;20168;-46
2022/12/03 03:36:25;;;;;;;14.65;8.15;;;3.00;99.90;;;;;;5055422;28;20162;-46
2022/12/03 03:38:51;;;;;;;12.80;8.50;;;3.00;99.90;;;;;;5055394;28;20648;-46
2022/12/03 03:41:18;;;;;;;13.02;8.75;;;3.00;99.90;;;;;;5073687;28;20174;-46
2022/12/03 03:43:45;;;;;;;17.85;9.48;;;3.00;99.90;;;;;;5073380;28;20181;-46
2022/12/03 03:46:12;;;;;;;14.43;9.23;;;3.10;99.90;;;;;;5073146;28;20181;-46
2022/12/03 03:48:39;;;;;;;13.20;9.10;;;3.00;99.90;;;;;;5073178;28;20244;-45
2022/12/03 03:51:08;;;;;;;13.80;9.45;;;3.00;99.90;;;;;;5072892;28;20215;-46
2022/12/03 03:53:41;;;;;;;14.85;9.48;;;3.00;99.90;;;;;;5073149;28;20170;-46
2022/12/03 03:56:08;;;;;;;15.63;8.90;;;3.00;99.90;;;;;;5072815;28;20169;-46
2022/12/03 03:58:34;;;;;;;14.07;8.43;;;3.00;99.90;;;;;;5072869;28;20197;-46
2022/12/03 04:01:00;;;;;;;15.60;9.40;;;3.00;99.90;;;;;;5072769;28;20244;-46
2022/12/03 04:03:27;;;;;;;14.75;9.40;;;3.00;99.90;;;;;;5072912;28;20232;-46
2022/12/03 04:05:53;;;;;;;16.42;9.45;;;3.00;99.90;;;;;;5072619;28;20166;-46
2022/12/03 04:08:18;;;;;;;14.75;9.40;;;2.90;99.90;;;;;;5072572;28;20235;-46
2022/12/03 04:13:28;;;;;;;12.27;6.50;;;2.90;99.90;;;;;;5052582;28;20198;-48
2022/12/03 04:15:54;;;;;;;14.90;8.85;;;3.00;99.90;;;;;;5052454;28;20623;-46
2022/12/03 04:23:47;;;;;;;17.38;10.00;;;3.00;99.90;;;;;;5052716;28;20232;-49
2022/12/03 04:28:57;;;;;;;15.27;9.88;;;3.00;99.90;;;;;;5051553;28;20173;-47
2022/12/03 04:36:52;;;;;;;18.15;10.20;;;3.00;99.90;;;;;;5052261;28;20298;-46
2022/12/03 04:39:17;;;;;;;18.08;9.93;;;3.00;99.90;;;;;;5052076;28;20166;-46
2022/12/03 04:41:43;;;;;;;17.45;9.93;;;3.00;99.90;;;;;;5052449;28;20248;-47
2022/12/03 04:46:52;;;;;;;17.35;10.10;;;3.00;99.90;;;;;;5051976;28;20749;-46
2022/12/03 04:49:18;;;;;;;17.58;10.07;;;2.90;99.90;;;;;;5051980;28;20175;-46
2022/12/03 04:51:44;;;;;;;15.82;9.15;;;3.00;99.90;;;;;;5052203;28;20661;-48
2022/12/03 04:54:09;;;;;;;18.60;10.70;;;3.00;99.90;;;;;;5051889;28;20657;-47
2022/12/03 04:56:35;;;;;;;17.30;10.80;;;3.00;99.90;;;;;;5051751;28;20178;-52
2022/12/03 04:59:00;;;;;;;16.25;10.52;;;3.00;99.90;;;;;;5033890;28;20171;-46
2022/12/03 05:01:26;;;;;;;17.13;10.50;;;3.00;99.90;;;;;;5051559;28;20226;-46
2022/12/03 05:03:51;;;;;;;20.42;11.35;;;3.10;99.90;;;;;;5051749;28;20249;-46
2022/12/03 05:06:17;;;;;;;17.60;10.95;;;3.10;99.90;;;;;;5034086;28;20178;-46
2022/12/03 05:08:42;;;;;;;18.45;10.18;;;3.10;99.90;;;;;;5052495;28;20181;-46
2022/12/03 05:11:08;;;;;;;18.50;11.00;;;3.10;99.90;;;;;;5051626;28;20225;-46
2022/12/03 05:13:34;;;;;;;17.10;9.77;;;3.10;99.90;;;;;;5051606;28;20193;-46
2022/12/03 05:15:59;;;;;;;18.60;10.50;;;3.10;99.90;;;;;;5051896;28;20253;-46
2022/12/03 05:18:25;;;;;;;16.65;10.15;;;3.10;99.90;;;;;;5051564;28;20257;-52
2022/12/03 05:20:50;;;;;;;16.38;10.25;;;3.10;99.90;;;;;;5051560;28;20171;-52
2022/12/03 05:23:16;;;;;;;16.00;9.75;;;3.10;99.90;;;;;;5051674;28;20202;-51
2022/12/03 05:25:41;;;;;;;19.77;10.48;;;3.10;99.90;;;;;;5051473;28;20163;-52
2022/12/03 05:28:07;;;;;;;18.17;11.25;;;3.10;99.90;;;;;;5051472;28;20241;-47
2022/12/03 05:30:33;;;;;;;18.95;10.45;;;3.10;99.90;;;;;;5051560;28;20185;-46
2022/12/03 05:32:58;;;;;;;18.25;10.65;;;3.10;99.90;;;;;;5051425;28;20169;-47
2022/12/03 05:35:24;;;;;;;18.50;10.95;;;3.00;99.90;;;;;;5051405;28;20217;-49
2022/12/03 05:37:49;;;;;;;17.30;9.70;;;3.10;99.90;;;;;;5051583;28;20178;-46
2022/12/03 05:40:15;;;;;;;17.67;9.98;;;3.10;99.90;;;;;;5054796;28;20163;-46
2022/12/03 05:42:53;;;;;;;17.27;9.98;;;3.10;99.90;;;;;;5055326;28;20206;-47
2022/12/03 05:45:30;;;;;;;21.00;10.57;;;3.10;99.90;;;;;;5055337;28;20166;-46
2022/12/03 05:47:57;;;;;;;14.88;9.63;;;3.10;99.90;;;;;;5037480;28;20178;-46
2022/12/03 05:50:25;;;;;;;19.75;9.40;;;3.10;99.90;;;;;;5055221;28;20174;-47
2022/12/03 05:52:51;;;;;;;18.17;10.18;;;3.00;99.90;;;;;;5055235;28;20209;-47
2022/12/03 05:55:17;;;;;;;17.02;9.57;;;3.00;99.90;;;;;;5055622;28;20194;-46
2022/12/03 05:57:43;;;;;;;16.95;9.82;;;3.00;99.90;;;;;;5055460;28;20181;-46
2022/12/03 06:00:16;;;;;;;16.88;8.85;;;3.00;99.90;;;;;;5054992;28;20171;-46
2022/12/03 06:02:42;;;;;;;21.90;9.68;;;3.00;99.90;;;;;;5055336;28;20221;-46
2022/12/03 06:05:09;;;;;;;12.68;7.68;;;3.00;99.90;;;;;;5054972;28;20189;-46
2022/12/03 06:07:35;;;;;;;18.63;9.57;;;2.90;99.90;;;;;;5054884;28;20166;-46
2022/12/03 06:10:01;;;;;;;14.40;8.20;;;2.90;99.90;;;;;;5054963;28;20686;-48
2022/12/03 06:12:26;;;;;;;17.00;8.95;;;2.80;99.90;;;;;;5054843;28;20642;-46
2022/12/03 06:14:53;;;;;;;14.73;9.00;;;2.80;99.90;;;;;;5054775;28;20169;-45
2022/12/03 06:17:19;;;;;;;18.25;9.80;;;2.90;99.90;;;;;;5054742;28;20639;-46
2022/12/03 06:19:45;;;;;;;15.52;9.32;;;2.90;99.90;;;;;;5055052;28;20173;-46
2022/12/03 06:22:11;;;;;;;17.75;10.00;;;2.90;99.90;;;;;;5054638;28;20207;-46
2022/12/03 06:24:36;;;;;;;19.27;10.27;;;2.90;99.90;;;;;;5054549;28;20163;-46
2022/12/03 06:27:02;;;;;;;21.02;9.98;;;2.90;99.90;;;;;;5054745;28;20170;-47
2022/12/03 06:29:27;;;;;;;15.45;7.63;;;2.90;99.90;;;;;;5054552;28;20634;-46
2022/12/03 06:31:53;;;;;;;18.75;9.52;;;2.80;99.90;;;;;;5054491;28;20527;-46
2022/12/03 06:34:18;;;;;;;16.38;10.23;;;2.80;99.90;;;;;;5054473;28;20211;-46
2022/12/03 06:36:45;;;;;;;15.48;9.52;;;2.80;99.90;;;;;;5054698;28;20665;-46
2022/12/03 06:39:11;;;;;;;20.73;10.05;;;2.90;99.90;;;;;;5054243;28;20634;-46
2022/12/03 06:41:37;;;;;;;17.25;9.57;;;2.80;99.90;;;;;;5054304;28;20569;-47
2022/12/03 06:44:03;;;;;;;20.17;10.32;;;2.80;99.90;;;;;;5054188;28;20171;-50
2022/12/03 06:46:29;;;;;;;18.67;10.25;;;2.90;99.90;;;;;;5036310;28;20166;-52
2022/12/03 06:48:54;;;;;;;17.65;10.23;;;2.80;99.90;;;;;;5054362;28;20629;-47
2022/12/03 06:51:20;;;;;;;20.42;10.40;;;2.90;99.90;;;;;;5053040;28;20163;-46
2022/12/03 06:53:45;;;;;;;19.33;10.73;;;2.90;99.90;;;;;;5054412;28;20178;-46
2022/12/03 06:56:11;;;;;;;19.05;10.68;;;2.90;99.90;;;;;;5054291;28;20194;-46
2022/12/03 06:58:36;;;;;;;20.48;10.27;;;2.80;99.90;;;;;;5053711;28;20217;-46
2022/12/03 07:01:02;;;;;;;20.38;10.90;;;2.90;99.90;;;;;;5053873;28;20228;-46
2022/12/03 07:03:28;;;;;;;21.30;11.07;;;2.90;99.90;;;;;;5053905;28;20285;-46
2022/12/03 07:05:53;;;;;;;20.30;10.45;;;2.90;99.90;;;;;;5053916;28;20211;-46
2022/12/03 07:08:19;;;;;;;19.58;9.23;;;2.90;99.90;;;;;;5053766;28;20202;-46
2022/12/03 07:10:44;;;;;;;20.50;10.30;;;2.90;99.90;;;;;;5054139;28;20174;-46
2022/12/03 07:13:10;;;;;;;20.23;10.65;;;2.80;99.90;;;;;;5053697;28;20163;-46
2022/12/03 07:15:36;;;;;;;20.10;9.88;;;2.70;99.90;;;;;;5053853;28;20564;-46
2022/12/03 07:18:01;;;;;;;15.32;7.28;;;2.80;99.90;;;;;;5053776;28;20167;-47
2022/12/03 07:20:27;;;;;;;27.35;12.52;;;2.80;99.90;;;;;;5053182;28;20167;-46
2022/12/03 07:22:52;;;;;;;18.90;10.23;;;2.90;99.90;;;;;;5053274;28;20209;-46
2022/12/03 07:25:18;;;;;;;22.08;11.43;;;2.80;99.90;;;;;;5053523;28;20170;-46
2022/12/03 07:27:43;;;;;;;18.75;10.73;;;2.80;99.90;;;;;;5035888;28;20178;-47
2022/12/03 07:30:12;;;;;;;21.33;10.80;;;2.90;99.90;;;;;;5035278;28;20641;-46
2022/12/03 07:32:37;;;;;;;22.65;11.65;;;2.90;99.90;;;;;;5053353;28;20186;-45
2022/12/03 07:35:06;;;;;;;22.45;10.40;;;2.90;99.90;;;;;;5053241;28;20162;-47
2022/12/03 07:37:35;;;;;;;24.27;10.25;;;2.90;99.90;;;;;;5053414;28;20179;-47
2022/12/03 07:40:00;;;;;;;21.27;11.30;;;2.80;99.90;;;;;;5052833;28;20170;-46
2022/12/03 07:42:26;;;;;;;25.80;11.65;;;2.90;99.90;;;;;;5052941;28;20558;-46
2022/12/03 07:44:52;;;;;;;20.13;10.63;;;2.90;99.90;;;;;;5053071;28;20588;-46
2022/12/03 07:47:18;;;;;;;22.52;10.40;;;3.00;99.90;;;;;;5053926;28;20194;-51
2022/12/03 07:49:43;;;;;;;25.75;11.93;;;2.90;99.90;;;;;;5069756;28;20589;-48
2022/12/03 07:52:09;;;;;;;20.95;10.88;;;2.90;99.90;;;;;;5051198;28;20662;-46
2022/12/03 07:54:34;;;;;;;21.52;10.63;;;2.90;99.90;;;;;;5051012;28;20232;-45
2022/12/03 07:57:00;;;;;;;23.23;11.65;;;3.00;99.90;;;;;;5051314;28;20257;-50
2022/12/03 07:59:26;;;;;;;21.33;10.40;;;3.00;99.90;;;;;;5051028;28;20170;-48
2022/12/03 08:01:52;;;;;;;19.58;10.45;;;2.90;99.90;;;;;;5050493;28;20214;-46
2022/12/03 08:04:17;;;;;;;23.13;10.88;;;2.90;99.90;;;;;;5050858;28;20506;-46
2022/12/03 08:06:44;;;;;;;24.10;9.63;;;2.90;99.90;;;;;;5033282;28;20240;-47
2022/12/03 08:09:09;;;;;;;21.70;11.70;;;2.90;99.90;;;;;;5050770;28;20174;-46
2022/12/03 08:11:35;;;;;;;20.85;10.18;;;2.90;99.90;;;;;;5050851;28;20171;-47
2022/12/03 08:14:06;;;;;;;22.20;10.57;;;2.90;99.90;;;;;;5050733;28;20174;-47
2022/12/03 08:16:37;;;;;;;22.20;11.10;;;2.90;99.90;;;;;;5050504;28;20634;-48
2022/12/03 08:19:08;;;;;;;20.23;10.15;;;2.90;99.90;;;;;;5050917;28;20557;-44
2022/12/03 08:21:35;;;;;;;22.58;10.43;;;3.00;99.90;;;;;;5050703;28;20206;-46
2022/12/03 08:24:10;;;;;;;19.65;9.73;;;2.90;99.90;;;;;;5050830;28;20182;-48
2022/12/03 08:26:36;;;;;;;20.60;10.05;;;2.90;99.90;;;;;;5050424;28;20901;-47
2022/12/03 08:29:07;;;;;;;22.75;11.48;;;3.00;99.90;;;;;;5050502;28;20202;-47
2022/12/03 08:31:33;;;;;;;19.30;9.88;;;3.10;99.90;;;;;;5050385;28;20250;-48
2022/12/03 08:34:17;;;;;;;18.00;9.27;;;3.20;99.90;;;;;;5050484;28;20249;-51
2022/12/03 08:36:44;;;;;;;20.65;10.48;;;3.20;99.90;;;;;;5050898;28;20265;-48
2022/12/03 08:39:28;;;;;;;18.42;10.00;;;3.20;99.90;;;;;;5050417;28;20171;-47
2022/12/03 08:45:26;;;;;;;15.77;9.02;;;3.30;99.90;;;;;;5016195;28;20201;-48
2022/12/03 08:47:55;;;;;;;14.88;7.88;;;3.30;99.90;;;;;;5051819;28;20174;-48
2022/12/03 08:50:31;;;;;;;20.55;9.93;;;3.30;99.90;;;;;;5067557;28;20176;-49
2022/12/03 08:53:12;;;;;;;17.17;9.25;;;3.30;99.90;;;;;;5070457;28;20189;-50
2022/12/03 08:55:50;;;;;;;17.88;9.18;;;3.30;99.90;;;;;;5065707;28;20248;-48
2022/12/03 08:58:33;;;;;;;18.05;9.18;;;3.30;99.90;;;;;;5063521;28;20171;-48
2022/12/03 09:01:04;;;;;;;15.57;9.02;;;3.30;99.90;;;;;;5054489;28;20214;-47
2022/12/03 09:03:31;;;;;;;15.52;8.63;;;3.30;99.90;;;;;;5049741;28;20213;-48
2022/12/03 09:05:57;;;;;;;14.73;8.88;;;3.30;99.90;;;;;;5050206;28;20174;-47
2022/12/03 09:08:22;;;;;;;18.27;9.80;;;1.70;99.90;;;;;;5050149;28;20320;-47
2022/12/03 09:10:48;;;;;;;17.75;8.70;;;3.40;99.90;;;;;;5054464;28;20170;-48
2022/12/03 09:13:14;;;;;;;15.98;8.98;;;3.40;99.90;;;;;;5059060;28;20185;-46
2022/12/03 09:15:39;;;;;;;18.52;8.45;;;3.40;99.90;;;;;;5062701;28;20176;-51
2022/12/03 09:18:05;;;;;;;15.13;8.93;;;3.30;99.90;;;;;;5069227;28;20174;-48
2022/12/03 09:20:30;;;;;;;14.88;8.40;;;3.30;99.90;;;;;;5069767;28;20618;-46
2022/12/03 09:22:56;;;;;;;16.67;9.32;;;3.40;99.90;;;;;;5069646;28;20210;-48
2022/12/03 09:25:21;;;;;;;18.02;9.35;;;3.40;99.90;;;;;;5069583;28;20154;-47
2022/12/03 09:27:47;;;;;;;17.80;9.43;;;3.40;99.90;;;;;;5069637;28;20322;-48
2022/12/03 09:30:13;;;;;;;14.93;7.95;;;3.50;99.90;;;;;;5070361;28;20166;-48
2022/12/03 09:32:38;;;;;;;16.20;8.60;;;3.50;99.90;;;;;;5069834;28;20223;-48
2022/12/03 09:35:05;;;;;;;16.38;8.52;;;3.60;99.90;;;;;;5069464;28;20190;-47
2022/12/03 09:37:30;;;;;;;15.02;8.77;;;3.60;99.90;;;;;;5069579;28;20695;-48
2022/12/03 09:39:56;;;;;;;15.18;8.30;;;3.70;99.90;;;;;;5069772;28;20174;-47
2022/12/03 09:42:21;;;;;;;14.90;9.02;;;3.80;99.90;;;;;;5069489;28;20276;-47
2022/12/03 09:44:47;;;;;;;13.90;8.15;;;3.80;99.90;;;;;;5069534;28;20209;-46
2022/12/03 09:47:13;;;;;;;15.57;8.80;;;3.70;99.90;;;;;;5070300;28;20174;-47
2022/12/03 09:49:39;;;;;;;16.35;8.90;;;3.70;99.90;;;;;;5069542;28;20641;-46
2022/12/03 09:52:06;;;;;;;16.00;8.88;;;3.70;99.90;;;;;;5069418;28;20162;-48
2022/12/03 09:54:32;;;;;;;15.25;8.30;;;3.70;99.90;;;;;;5069708;28;20166;-47
2022/12/03 09:57:01;;;;;;;14.30;8.43;;;3.80;99.90;;;;;;5069341;28;20638;-47
2022/12/03 09:59:31;;;;;;;13.73;7.68;;;3.80;99.90;;;;;;5069734;28;20236;-48
2022/12/03 10:01:57;;;;;;;14.65;9.25;;;3.80;99.90;;;;;;5069171;28;20217;-47
2022/12/03 10:04:23;;;;;;;14.85;7.53;;;3.80;99.90;;;;;;5069357;28;20172;-47
2022/12/03 10:06:49;;;;;;;14.23;7.75;;;3.80;99.90;;;;;;5069271;28;20170;-47
2022/12/03 10:09:22;;;;;;;14.60;8.52;;;3.80;99.90;;;;;;5051808;28;20778;-48
2022/12/03 10:11:48;;;;;;;17.23;9.48;;;3.80;99.90;;;;;;5069261;28;20170;-48
2022/12/03 10:14:15;;;;;;;15.02;7.78;;;3.80;99.90;;;;;;5069466;28;20169;-47
2022/12/03 10:16:41;;;;;;;15.43;8.35;;;3.80;99.90;;;;;;5069534;28;20162;-47
2022/12/03 10:19:17;;;;;;;14.93;7.50;;;3.90;99.90;;;;;;5069535;28;20166;-47
2022/12/03 10:21:43;;;;;;;14.68;8.13;;;3.80;99.90;;;;;;5069472;28;20193;-47
2022/12/03 10:24:25;;;;;;;16.23;8.38;;;3.80;99.90;;;;;;5069194;28;20181;-49
2022/12/03 10:26:53;;;;;;;15.85;8.77;;;3.90;99.90;;;;;;5071416;28;20568;-47
2022/12/03 10:29:25;;;;;;;12.98;7.32;;;3.90;99.90;;;;;;5072713;28;20166;-48
2022/12/03 10:31:56;;;;;;;15.30;8.25;;;3.90;99.90;;;;;;5072324;28;20585;-47
2022/12/03 10:34:29;;;;;;;20.42;7.78;;;4.00;99.90;;;;;;5052544;28;20245;-49
2022/12/03 10:37:13;;;;;;;14.82;8.50;;;4.00;99.90;;;;;;5052753;28;20235;-48
2022/12/03 10:39:54;;;;;;;20.10;9.57;;;4.00;99.90;;;;;;5052796;28;20167;-48
2022/12/03 10:42:20;;;;;;;16.88;9.10;;;4.00;99.90;;;;;;5063292;28;20205;-47
2022/12/03 10:44:46;;;;;;;18.52;10.13;;;3.90;99.90;;;;;;5054898;28;20168;-50
2022/12/03 10:47:13;;;;;;;18.58;9.20;;;3.90;99.90;;;;;;5072789;28;20174;-47
2022/12/03 10:49:40;;;;;;;16.92;10.00;;;4.00;99.90;;;;;;5072464;28;20168;-48
2022/12/03 10:52:20;;;;;;;17.25;9.38;;;4.10;99.90;;;;;;5072241;28;20159;-47
2022/12/03 10:54:46;;;;;;;17.98;9.25;;;4.10;99.90;;;;;;5072535;28;20201;-52
2022/12/03 10:57:12;;;;;;;17.35;10.20;;;4.20;99.90;;;;;;5072531;28;20650;-47
2022/12/03 10:59:40;;;;;;;15.95;9.35;;;4.20;99.90;;;;;;5072215;28;20629;-48
2022/12/03 11:02:17;;;;;;;15.15;8.85;;;4.30;99.90;;;;;;5071725;28;20221;-48
2022/12/03 11:04:43;;;;;;;17.45;8.60;;;4.20;99.90;;;;;;5072426;28;20162;-47
2022/12/03 11:07:17;;;;;;;15.50;8.60;;;4.30;99.90;;;;;;5054035;28;20503;-47
2022/12/03 11:09:45;;;;;;;15.15;8.68;;;4.20;99.90;;;;;;5072585;28;20225;-48
2022/12/03 11:12:16;;;;;;;16.70;9.48;;;4.30;99.90;;;;;;5072173;28;20166;-48
2022/12/03 11:14:51;;;;;;;17.08;9.55;;;4.50;99.90;;;;;;5072416;28;20245;-48
2022/12/03 11:17:40;;;;;;;13.40;7.40;;;4.40;99.90;;;;;;5071784;28;20157;-46
2022/12/03 11:20:12;;;;;;;17.45;9.00;;;4.40;99.90;;;;;;5072138;28;20257;-47
2022/12/03 11:22:43;;;;;;;14.43;8.85;;;4.30;99.90;;;;;;5071742;28;20688;-48
2022/12/03 11:25:24;;;;;;;18.00;8.43;;;4.40;99.90;;;;;;5071729;28;20664;-51
2022/12/03 11:28:11;;;;;;;14.27;7.88;;;4.50;99.90;;;;;;5071936;28;20181;-49
2022/12/03 11:30:52;;;;;;;14.48;9.13;;;4.50;99.90;;;;;;5071599;28;20166;-49
2022/12/03 11:33:31;;;;;;;15.30;7.78;;;4.40;99.90;;;;;;5071662;28;20169;-51
2022/12/03 11:36:02;;;;;;;13.60;8.35;;;4.40;99.90;;;;;;5071365;28;20166;-49
2022/12/03 11:38:39;;;;;;;16.35;8.68;;;4.40;99.90;;;;;;5071202;28;20517;-47
2022/12/03 11:41:29;;;;;;;14.95;9.10;;;4.40;99.90;;;;;;5071578;28;20307;-49
2022/12/03 11:44:04;;;;;;;16.73;8.60;;;4.30;99.90;;;;;;5071327;28;20265;-48
2022/12/03 11:46:36;;;;;;;14.25;7.90;;;4.30;99.90;;;;;;5071216;28;20168;-47
2022/12/03 11:49:17;;;;;;;15.38;8.18;;;4.40;99.90;;;;;;5071119;28;20166;-48
2022/12/03 11:51:43;;;;;;;13.15;7.88;;;4.40;99.90;;;;;;5071601;28;20227;-47
2022/12/03 11:54:15;;;;;;;14.85;7.78;;;4.40;99.90;;;;;;5070918;28;20533;-47
2022/12/03 11:56:47;;;;;;;13.02;7.93;;;4.50;99.90;;;;;;5071440;28;20169;-48
2022/12/03 11:59:14;;;;;;;13.82;7.40;;;4.60;99.90;;;;;;5071172;28;20540;-48
2022/12/03 12:01:40;;;;;;;16.25;10.52;;;4.50;99.90;;;;;;5070895;28;20217;-49
2022/12/03 12:04:24;;;;;;;13.10;7.97;;;4.60;99.90;;;;;;5071353;28;20170;-47
2022/12/03 12:06:50;;;;;;;12.43;7.35;;;4.60;99.90;;;;;;5071076;28;20230;-47
2022/12/03 12:09:51;;;;;;;12.95;8.38;;;4.60;99.90;;;;;;5070935;28;20630;-46
2022/12/03 12:12:28;;;;;;;16.10;8.82;;;4.60;99.90;;;;;;5071096;28;20218;-48
2022/12/03 12:14:53;;;;;;;11.15;7.22;;;4.60;99.90;;;;;;5070865;28;20173;-51
2022/12/03 12:17:36;;;;;;;11.75;7.30;;;4.60;99.90;;;;;;5070789;28;20211;-47
2022/12/03 12:20:25;;;;;;;12.85;8.25;;;4.70;99.90;;;;;;5070986;28;20178;-47
2022/12/03 12:22:52;;;;;;;13.05;8.50;;;4.70;99.90;;;;;;5052678;28;20622;-49
2022/12/03 12:25:45;;;;;;;13.98;7.97;;;4.60;99.90;;;;;;5070397;28;20180;-48
2022/12/03 12:28:11;;;;;;;12.70;8.02;;;4.60;99.90;;;;;;5067219;28;20212;-47
2022/12/03 12:30:37;;;;;;;14.32;7.50;;;4.60;99.90;;;;;;5070566;28;20546;-48
2022/12/03 12:33:09;;;;;;;15.25;8.85;;;4.60;99.90;;;;;;5070588;28;20188;-48
2022/12/03 12:35:35;;;;;;;14.38;7.72;;;4.60;99.90;;;;;;5052556;28;20176;-48
2022/12/03 12:38:09;;;;;;;13.15;7.57;;;4.50;99.90;;;;;;5070814;28;20158;-51
2022/12/03 12:40:37;;;;;;;13.95;8.32;;;4.50;99.90;;;;;;5070204;28;20599;-46
2022/12/03 12:43:16;;;;;;;13.65;7.97;;;4.50;99.90;;;;;;5070414;28;20205;-48
2022/12/03 12:45:42;;;;;;;11.43;7.82;;;4.50;99.90;;;;;;5070723;28;20162;-47
2022/12/03 12:48:16;;;;;;;13.23;8.00;;;4.50;99.90;;;;;;5069627;28;20177;-48
2022/12/03 12:50:44;;;;;;;14.23;7.70;;;4.50;99.90;;;;;;5070731;28;20215;-47
2022/12/03 12:53:23;;;;;;;13.73;8.88;;;4.50;99.90;;;;;;5070114;28;20617;-49
2022/12/03 12:55:54;;;;;;;13.27;7.90;;;4.50;99.90;;;;;;5070177;28;20212;-47
2022/12/03 12:58:20;;;;;;;14.52;8.25;;;4.50;99.90;;;;;;5070147;28;20174;-48
2022/12/03 13:00:50;;;;;;;12.38;7.78;;;4.50;99.90;;;;;;5070073;28;20653;-48
2022/12/03 13:03:17;;;;;;;16.17;8.65;;;4.50;99.90;;;;;;5070061;28;20201;-48
2022/12/03 13:05:46;;;;;;;11.75;7.85;;;4.40;99.90;;;;;;5070360;28;20656;-48
2022/12/03 13:08:21;;;;;;;12.32;7.35;;;4.50;99.90;;;;;;5070358;28;20170;-49
2022/12/03 13:10:48;;;;;;;15.38;9.02;;;4.40;99.90;;;;;;5057943;28;20185;-46
2022/12/03 13:13:19;;;;;;;12.75;7.90;;;4.40;99.90;;;;;;5032425;28;20194;-49